KLAL/LAL METAR and TAF weather

Enter ICAO airport designator
Station Type Date Time Source
KLAL METAR 2020/01/18 23:50 UTC NOAA

KLAL 182350Z 13004KT 10SM SKC 21/13 A3023


Station Type Date Time Source
KLAL Decoded METAR 2020/01/18 23:50 UTC NOAA

Lakeland Regional, FL, United States (KLAL) 27-59N 082-01W
Jan 18, 2020 - 06:50 PM EST / 2020.01.18 2350 UTC
Wind: from the SE (130 degrees) at 5 MPH (4 KT):0
Visibility: 10 mile(s):0
Sky conditions: clear
Temperature: 69 F (21 C)
Dew Point: 55 F (13 C)
Relative Humidity: 60%
Pressure (altimeter): 30.23 in. Hg (1023 hPa)
ob: KLAL 182350Z 13004KT 10SM SKC 21/13 A3023
cycle: 0

Station Type Date Time Source
KLAL TAF 2020/01/18 18:39 UTC NOAA

TAF KLAL 181736Z 1818/1918 13011KT P6SM SCT040 BKN250
FM190000 VRB04KT P6SM FEW030 BKN250
FM191500 20007KT P6SM VCSH BKN030 BKN100

Example: see airport list